Terminal Aerodrome Forecast
Issued by NWS Lubbock, TX

Home | Current Version | Previous Version | Text Only | Print | Product List | Glossary On
Versions: 1 2 3 4 5 6 7 8 9 10 11 12 13
000
FTUS44 KLUB 162300
TAFLBB
TAF
KLBB 162320Z 1700/1724 20015G20KT P6SM FEW250
     FM170100 15014KT P6SM FEW250
     FM171100 03014KT P6SM SCT030 SCT250=

USA.gov is the U.S. government's official web portal to all federal, state and local government web resources and services.